Lemoore Naval Air Station (Reeves Field) Airport Lemoore US
ICAO: KNLC
IATA: NLC
Category: Medium
Scheduled Services: No

Elevation: 232 ft
TransAlt. 18000 ft.

Airport Communications:
APP:118.15
ATIS:26.76
CLNC DEL:124.1
DEP:118.15
GND:121.65
BASE OPS:29.93
PMSV METRO:31.7
TWR:128.3

KNLC Zoom In..

Runways:

(A) RW 14L length 13500 ft width 200 ft
---- / hdg 142

(B) RW 14R length 13497 ft width 200 ft
---- / hdg 142

(C) RW 32L length 13497 ft width 200 ft
---- / hdg 322

(D) RW 32R length 13500 ft width 200 ft
---- / hdg 322

Location; KNLC
Day. 21 / Time. 23.56 Zulu
* Altimeter: 30.00
* Temperature: 29° c. 84.2°f.
* Wind from: 360° Speed 08 kn.
Dewpoint: 08° c.
Visibility: 10 Statute Miles.
Clouds: Clear (automated report).

KNLC 212356Z AUTO 36008KT 10SM CLR 29/08 A3000 RMK AO2 SLP160 T02890078 10289 20228 56021 $


Wind From 360°
Speed 08 kn.

  YouTube Music Video
 
jpsmedia.com for Web Design  worldairports.se 2018   terms of use